createdAt,value
2018-02-07T00:00:34.554Z,43.70
2018-02-07T00:01:34.543Z,43.90
2018-02-07T00:02:34.528Z,41.10
2018-02-07T00:03:34.513Z,42.20
2018-02-07T00:04:34.501Z,41.90
2018-02-07T00:05:34.486Z,43.40
2018-02-07T00:06:34.469Z,40.90
2018-02-07T00:07:34.483Z,41.70
2018-02-07T00:08:34.448Z,43.00
2018-02-07T00:09:34.444Z,41.00
2018-02-07T00:10:34.416Z,40.20
2018-02-07T00:11:34.405Z,40.40
2018-02-07T00:12:34.392Z,40.00
2018-02-07T00:13:34.375Z,44.20
2018-02-07T00:14:34.361Z,46.80
2018-02-07T00:15:34.349Z,45.40
2018-02-07T00:16:34.335Z,45.70
2018-02-07T00:17:34.318Z,42.80
2018-02-07T00:18:34.307Z,43.70
2018-02-07T00:19:34.293Z,43.90
2018-02-07T00:20:34.282Z,43.80
2018-02-07T00:21:34.269Z,44.00
2018-02-07T00:22:34.278Z,43.80
2018-02-07T00:23:34.237Z,43.90
2018-02-07T00:24:34.224Z,40.10
2018-02-07T00:25:34.211Z,44.00
2018-02-07T00:26:34.196Z,41.20
2018-02-07T00:27:34.184Z,42.20
2018-02-07T00:28:34.173Z,40.10
2018-02-07T00:29:34.161Z,44.90
2018-02-07T00:30:34.139Z,44.70
2018-02-07T00:31:34.134Z,43.80
2018-02-07T00:32:34.121Z,43.40
2018-02-07T00:33:34.099Z,42.40
2018-02-07T00:34:34.093Z,42.20
2018-02-07T00:35:34.070Z,43.50
2018-02-07T00:36:34.050Z,43.20
2018-02-07T00:37:34.047Z,44.80
2018-02-07T00:38:34.040Z,45.90
2018-02-07T00:39:34.018Z,41.40
2018-02-07T00:40:33.996Z,48.60
2018-02-07T00:41:33.986Z,47.20
2018-02-07T00:42:34.008Z,45.90
2018-02-07T00:43:33.963Z,43.10
2018-02-07T00:44:33.946Z,47.30
2018-02-07T00:45:33.932Z,45.70
2018-02-07T00:46:33.920Z,48.40
2018-02-07T00:47:33.907Z,47.80
2018-02-07T00:48:33.899Z,50.20
2018-02-07T00:49:33.876Z,48.10
2018-02-07T00:50:33.861Z,48.90
2018-02-07T00:51:33.849Z,46.70
2018-02-07T00:52:33.830Z,45.50
2018-02-07T00:53:33.821Z,48.70
2018-02-07T00:54:33.811Z,50.70
2018-02-07T00:55:33.821Z,49.80
2018-02-07T00:56:33.780Z,47.70
2018-02-07T00:57:33.766Z,49.10
2018-02-07T00:58:33.742Z,53.20
2018-02-07T00:59:33.737Z,49.10
2018-02-07T01:00:33.721Z,48.90
2018-02-07T01:01:33.706Z,52.60
2018-02-07T01:02:33.693Z,47.70
2018-02-07T01:03:33.682Z,50.30
2018-02-07T01:04:33.667Z,45.50
2018-02-07T01:05:33.653Z,51.00
2018-02-07T01:06:33.636Z,50.80
2018-02-07T01:07:33.623Z,51.60
2018-02-07T01:08:33.612Z,56.00
2018-02-07T01:09:33.607Z,50.80
2018-02-07T01:10:33.583Z,51.50
2018-02-07T01:11:33.567Z,54.70
2018-02-07T01:12:33.549Z,52.70
2018-02-07T01:13:33.537Z,55.90
2018-02-07T01:14:33.525Z,51.00
2018-02-07T01:15:33.514Z,49.80
2018-02-07T01:16:33.499Z,47.70
2018-02-07T01:17:33.482Z,46.70
2018-02-07T01:18:33.469Z,47.20
2018-02-07T01:19:33.453Z,46.00
2018-02-07T01:20:33.440Z,51.70
2018-02-07T01:21:33.423Z,46.90
2018-02-07T01:22:33.410Z,50.50
2018-02-07T01:23:33.397Z,47.90
2018-02-07T01:24:33.393Z,48.20
2018-02-07T01:25:33.370Z,44.60
2018-02-07T01:26:33.354Z,46.70
2018-02-07T01:27:33.341Z,46.60
2018-02-07T01:28:33.334Z,42.60
2018-02-07T01:29:33.315Z,46.10
2018-02-07T01:30:33.297Z,47.30
2018-02-07T01:31:33.283Z,47.80
2018-02-07T01:32:33.266Z,47.10
2018-02-07T01:33:33.253Z,51.10
2018-02-07T01:34:33.240Z,47.90
2018-02-07T01:35:33.227Z,46.90
2018-02-07T01:36:33.212Z,49.50
2018-02-07T01:37:33.197Z,46.60
2018-02-07T01:38:33.183Z,50.10
2018-02-07T01:39:33.172Z,54.80
2018-02-07T01:40:33.159Z,52.20
2018-02-07T01:41:33.141Z,57.40
2018-02-07T01:42:33.140Z,53.00
2018-02-07T01:43:33.115Z,55.50
2018-02-07T01:44:33.091Z,50.60
2018-02-07T01:45:33.084Z,55.60
2018-02-07T01:46:33.071Z,56.20
2018-02-07T01:47:33.077Z,67.00
2018-02-07T01:48:33.041Z,62.30
2018-02-07T01:49:33.028Z,54.00
2018-02-07T01:50:33.014Z,50.90
2018-02-07T01:51:32.999Z,58.60
2018-02-07T01:52:32.986Z,63.70
2018-02-07T01:53:32.972Z,57.00
2018-02-07T01:54:32.959Z,54.10
2018-02-07T01:55:32.945Z,58.60
2018-02-07T01:56:32.929Z,55.90
2018-02-07T01:57:32.918Z,59.30
2018-02-07T01:58:32.899Z,62.70
2018-02-07T01:59:32.907Z,58.10
2018-02-07T02:00:32.873Z,64.10
2018-02-07T02:01:32.856Z,60.70
2018-02-07T02:02:32.847Z,62.20
2018-02-07T02:03:32.827Z,60.50
2018-02-07T02:04:32.814Z,64.20
2018-02-07T02:05:32.798Z,60.80
2018-02-07T02:06:32.785Z,60.50
2018-02-07T02:07:32.780Z,58.20
2018-02-07T02:08:32.755Z,54.00
2018-02-07T02:09:32.745Z,54.40
2018-02-07T02:10:32.728Z,55.30
2018-02-07T02:11:32.716Z,53.80
2018-02-07T02:12:32.702Z,51.80
2018-02-07T02:13:32.681Z,55.90
2018-02-07T02:14:32.668Z,55.60
2018-02-07T02:15:32.654Z,52.90
2018-02-07T02:16:32.642Z,53.80
2018-02-07T02:17:32.626Z,50.50
2018-02-07T02:18:32.612Z,49.30
2018-02-07T02:19:32.600Z,50.60
2018-02-07T02:20:32.604Z,43.70
2018-02-07T02:21:32.570Z,45.60
2018-02-07T02:22:32.553Z,44.40
2018-02-07T02:23:32.540Z,45.80
2018-02-07T02:24:32.529Z,48.00
2018-02-07T02:25:32.512Z,47.10
2018-02-07T02:26:32.524Z,47.50
2018-02-07T02:27:32.482Z,44.80
2018-02-07T02:28:32.466Z,42.80
2018-02-07T02:29:32.454Z,44.60
2018-02-07T02:30:32.450Z,44.90
2018-02-07T02:31:32.426Z,45.90
2018-02-07T02:32:32.419Z,42.60
2018-02-07T02:33:32.390Z,41.60
2018-02-07T02:34:32.381Z,43.80
2018-02-07T02:35:32.370Z,43.40
2018-02-07T02:36:32.357Z,41.50
2018-02-07T02:37:32.340Z,45.00
2018-02-07T02:38:32.328Z,39.70
2018-02-07T02:39:32.314Z,39.10
2018-02-07T02:40:32.300Z,40.60
2018-02-07T02:41:32.285Z,37.60
2018-02-07T02:42:32.268Z,43.80
2018-02-07T02:43:32.255Z,44.70
2018-02-07T02:44:32.251Z,42.40
2018-02-07T02:45:32.226Z,39.70
2018-02-07T02:46:32.214Z,44.60
2018-02-07T02:47:32.206Z,41.50
2018-02-07T02:48:32.193Z,43.70
2018-02-07T02:49:32.170Z,47.40
2018-02-07T02:50:32.159Z,49.50
2018-02-07T02:51:32.143Z,44.60
2018-02-07T02:52:32.131Z,44.60
2018-02-07T02:53:32.117Z,48.30
2018-02-07T02:54:32.105Z,41.10
2018-02-07T02:55:32.087Z,42.80
2018-02-07T02:56:32.074Z,41.40
2018-02-07T02:57:32.058Z,43.00
2018-02-07T02:58:32.041Z,46.10
2018-02-07T02:59:32.030Z,41.20
2018-02-07T03:00:32.028Z,44.40
2018-02-07T03:01:32.003Z,43.40
2018-02-07T03:02:31.988Z,38.60
2018-02-07T03:03:31.973Z,41.40
2018-02-07T03:04:31.958Z,40.00
2018-02-07T03:05:31.946Z,41.10
2018-02-07T03:06:31.932Z,38.80
2018-02-07T03:07:31.918Z,39.20
2018-02-07T03:08:31.901Z,41.00
2018-02-07T03:09:31.887Z,37.80
2018-02-07T03:10:31.885Z,38.30
2018-02-07T03:11:31.882Z,38.20
2018-02-07T03:12:31.852Z,39.40
2018-02-07T03:13:31.874Z,40.30
2018-02-07T03:14:31.842Z,39.00
2018-02-07T03:15:31.807Z,38.20
2018-02-07T03:16:31.794Z,41.10
2018-02-07T03:17:31.777Z,43.70
2018-02-07T03:18:31.774Z,38.80
2018-02-07T03:19:31.753Z,39.40
2018-02-07T03:20:31.734Z,39.70
2018-02-07T03:21:31.790Z,40.40
2018-02-07T03:22:31.707Z,37.70
2018-02-07T03:23:31.695Z,40.40
2018-02-07T03:24:31.705Z,39.80
2018-02-07T03:25:31.668Z,43.40
2018-02-07T03:26:31.676Z,41.30
2018-02-07T03:27:31.640Z,37.10
2018-02-07T03:28:31.667Z,41.60
2018-02-07T03:29:31.609Z,40.20
2018-02-07T03:30:31.606Z,40.90
2018-02-07T03:31:31.649Z,43.00
2018-02-07T03:32:31.583Z,40.50
2018-02-07T03:33:31.554Z,41.70
2018-02-07T03:34:31.572Z,39.50
2018-02-07T03:35:31.527Z,38.60
2018-02-07T03:36:31.537Z,39.10
2018-02-07T03:37:31.499Z,40.90
2018-02-07T03:38:31.494Z,36.30
2018-02-07T03:39:31.470Z,41.10
2018-02-07T03:40:31.505Z,38.60
2018-02-07T03:41:31.447Z,38.80
2018-02-07T03:42:31.450Z,41.10
2018-02-07T03:43:31.425Z,43.30
2018-02-07T03:44:31.408Z,43.90
2018-02-07T03:45:31.411Z,38.80
2018-02-07T03:46:31.378Z,38.80
2018-02-07T03:47:31.378Z,41.10
2018-02-07T03:48:31.346Z,39.50
2018-02-07T03:49:31.334Z,35.70
2018-02-07T03:50:31.366Z,37.40
2018-02-07T03:51:31.326Z,39.70
2018-02-07T03:52:31.293Z,37.60
2018-02-07T03:53:31.280Z,38.10
2018-02-07T03:54:31.291Z,40.00
2018-02-07T03:55:31.251Z,36.20
2018-02-07T03:56:31.241Z,36.20
2018-02-07T03:57:31.223Z,36.50
2018-02-07T03:58:31.215Z,38.40
2018-02-07T03:59:31.199Z,36.00
2018-02-07T04:00:31.190Z,36.10
2018-02-07T04:01:31.168Z,35.50
2018-02-07T04:02:31.154Z,38.00
2018-02-07T04:03:31.174Z,35.00
2018-02-07T04:04:31.152Z,37.60
2018-02-07T04:05:31.113Z,37.00
2018-02-07T04:06:31.115Z,35.70
2018-02-07T04:07:31.089Z,35.00
2018-02-07T04:08:31.105Z,39.00
2018-02-07T04:09:31.059Z,38.20
2018-02-07T04:10:31.088Z,37.20
2018-02-07T04:11:31.032Z,37.50
2018-02-07T04:12:31.020Z,39.30
2018-02-07T04:13:31.034Z,38.10
2018-02-07T04:14:30.990Z,39.60
2018-02-07T04:15:31.011Z,37.70
2018-02-07T04:16:30.972Z,37.20
2018-02-07T04:17:30.938Z,37.10
2018-02-07T04:18:30.936Z,36.60
2018-02-07T04:19:30.923Z,37.10
2018-02-07T04:20:30.953Z,34.40
2018-02-07T04:21:30.891Z,39.00
2018-02-07T04:22:30.894Z,36.80
2018-02-07T04:23:30.866Z,38.80
2018-02-07T04:24:30.879Z,35.50
2018-02-07T04:25:30.840Z,32.80
2018-02-07T04:26:30.840Z,36.20
2018-02-07T04:27:30.814Z,35.20
2018-02-07T04:28:30.839Z,40.10
2018-02-07T04:29:30.804Z,35.20
2018-02-07T04:30:30.781Z,36.10
2018-02-07T04:31:30.763Z,37.50
2018-02-07T04:32:30.825Z,35.50
2018-02-07T04:33:30.734Z,37.20
2018-02-07T04:34:30.733Z,36.60
2018-02-07T04:35:30.714Z,36.00
2018-02-07T04:36:30.708Z,35.50
2018-02-07T04:37:30.709Z,37.40
2018-02-07T04:38:30.675Z,38.00
2018-02-07T04:39:30.649Z,33.20
2018-02-07T04:40:30.639Z,36.10
2018-02-07T04:41:30.717Z,37.40
2018-02-07T04:42:30.610Z,38.00
2018-02-07T04:43:30.616Z,37.50
2018-02-07T04:44:30.585Z,39.70
2018-02-07T04:45:30.570Z,39.30
2018-02-07T04:46:30.613Z,35.80
2018-02-07T04:47:30.573Z,38.20
2018-02-07T04:48:30.545Z,38.40
2018-02-07T04:49:30.517Z,37.30
2018-02-07T04:50:30.527Z,38.30
2018-02-07T04:51:30.495Z,36.90
2018-02-07T04:52:30.493Z,38.70
2018-02-07T04:53:30.462Z,39.40
2018-02-07T04:54:30.456Z,38.10
2018-02-07T04:55:30.437Z,38.80
2018-02-07T04:56:30.478Z,37.00
2018-02-07T04:57:30.411Z,36.80
2018-02-07T04:58:30.396Z,37.30
2018-02-07T04:59:30.388Z,38.40
2018-02-07T05:00:30.369Z,36.30
2018-02-07T05:01:30.354Z,38.10
2018-02-07T05:02:30.344Z,38.30
2018-02-07T05:03:30.331Z,37.50
2018-02-07T05:04:30.319Z,33.60
2018-02-07T05:05:30.325Z,37.40
2018-02-07T05:06:30.290Z,36.50
2018-02-07T05:07:30.289Z,38.00
2018-02-07T05:08:30.253Z,38.20
2018-02-07T05:09:30.273Z,36.60
2018-02-07T05:10:30.235Z,37.00
2018-02-07T05:11:30.264Z,35.50
2018-02-07T05:12:30.213Z,39.80
2018-02-07T05:13:30.238Z,37.60
2018-02-07T05:14:30.181Z,38.10
2018-02-07T05:15:30.165Z,36.40
2018-02-07T05:16:30.197Z,37.80
2018-02-07T05:17:30.206Z,36.00
2018-02-07T05:18:30.157Z,37.30
2018-02-07T05:19:30.135Z,35.60
2018-02-07T05:20:30.123Z,37.90
2018-02-07T05:21:30.110Z,37.80
2018-02-07T05:22:30.132Z,37.40
2018-02-07T05:23:30.086Z,38.50
2018-02-07T05:24:30.072Z,42.20
2018-02-07T05:25:30.056Z,45.30
2018-02-07T05:26:30.050Z,36.70
2018-02-07T05:27:30.788Z,42.00
2018-02-07T05:28:30.032Z,39.70
2018-02-07T05:29:29.992Z,39.90
2018-02-07T05:30:30.762Z,40.40
2018-02-07T05:31:30.008Z,39.90
2018-02-07T05:32:29.988Z,78.90
2018-02-07T05:33:29.959Z,54.10
2018-02-07T05:34:30.011Z,45.50
2018-02-07T05:35:29.913Z,40.70
2018-02-07T05:36:30.757Z,40.50
2018-02-07T05:37:30.756Z,40.70
2018-02-07T05:38:30.756Z,39.90
2018-02-07T05:39:29.938Z,38.50
2018-02-07T05:40:30.752Z,39.10
2018-02-07T05:41:29.888Z,37.70
2018-02-07T05:42:29.826Z,40.50
2018-02-07T05:43:29.935Z,38.20
2018-02-07T05:44:29.798Z,37.10
2018-02-07T05:45:29.790Z,41.00
2018-02-07T05:46:30.755Z,37.50
2018-02-07T05:47:29.778Z,36.30
2018-02-07T05:48:29.740Z,38.50
2018-02-07T05:49:29.749Z,37.90
2018-02-07T05:50:29.710Z,40.60
2018-02-07T05:51:29.722Z,34.30
2018-02-07T05:52:29.728Z,36.10
2018-02-07T05:53:29.728Z,36.10
2018-02-07T05:54:29.733Z,37.30
2018-02-07T05:55:29.697Z,37.60
2018-02-07T05:56:29.646Z,37.50
2018-02-07T05:57:29.653Z,37.60
2018-02-07T05:58:29.664Z,40.10
2018-02-07T05:59:29.624Z,38.90
2018-02-07T06:00:29.579Z,36.10
2018-02-07T06:01:29.559Z,39.00
2018-02-07T06:02:29.582Z,39.00
2018-02-07T06:03:30.344Z,40.00
2018-02-07T06:04:29.597Z,38.00
2018-02-07T06:05:29.580Z,35.50
2018-02-07T06:06:29.507Z,38.50
2018-02-07T06:07:29.513Z,41.00
2018-02-07T06:08:30.275Z,39.80
2018-02-07T06:09:29.469Z,38.50
2018-02-07T06:10:29.474Z,38.90
2018-02-07T06:11:29.496Z,41.90
2018-02-07T06:12:29.440Z,38.90
2018-02-07T06:13:29.451Z,42.40
2018-02-07T06:14:29.461Z,44.00
2018-02-07T06:15:30.271Z,44.70
2018-02-07T06:16:29.377Z,43.20
2018-02-07T06:17:29.378Z,43.30
2018-02-07T06:18:29.381Z,43.10
2018-02-07T06:19:29.332Z,45.40
2018-02-07T06:20:29.311Z,43.90
2018-02-07T06:21:29.293Z,41.70
2018-02-07T06:22:29.313Z,47.90
2018-02-07T06:23:29.309Z,44.60
2018-02-07T06:24:29.277Z,42.50
2018-02-07T06:25:29.324Z,45.00
2018-02-07T06:26:29.237Z,42.70
2018-02-07T06:27:29.226Z,41.70
2018-02-07T06:28:29.222Z,46.50
2018-02-07T06:29:29.185Z,43.70
2018-02-07T06:30:29.199Z,49.10
2018-02-07T06:31:29.162Z,42.80
2018-02-07T06:32:29.164Z,44.80
2018-02-07T06:33:29.141Z,44.20
2018-02-07T06:34:29.116Z,45.80
2018-02-07T06:35:29.126Z,44.80
2018-02-07T06:36:29.094Z,46.20
2018-02-07T06:37:29.080Z,44.80
2018-02-07T06:38:29.085Z,43.70
2018-02-07T06:39:29.071Z,44.20
2018-02-07T06:40:29.038Z,45.20
2018-02-07T06:41:29.021Z,43.60
2018-02-07T06:42:29.008Z,45.10
2018-02-07T06:43:29.011Z,44.70
2018-02-07T06:44:28.997Z,45.50
2018-02-07T06:45:28.986Z,42.20
2018-02-07T06:46:28.980Z,44.80
2018-02-07T06:47:28.963Z,42.10
2018-02-07T06:48:28.939Z,40.70
2018-02-07T06:49:28.922Z,44.30
2018-02-07T06:50:28.904Z,42.10
2018-02-07T06:51:28.887Z,42.70
2018-02-07T06:52:28.928Z,41.00
2018-02-07T06:53:28.889Z,42.10
2018-02-07T06:54:28.851Z,46.80
2018-02-07T06:55:28.842Z,43.80
2018-02-07T06:56:28.825Z,42.50
2018-02-07T06:57:28.812Z,40.80
2018-02-07T06:58:28.811Z,41.60
2018-02-07T06:59:28.786Z,43.60
2018-02-07T07:00:28.774Z,45.30
2018-02-07T07:01:28.755Z,46.60
2018-02-07T07:02:28.747Z,44.20
2018-02-07T07:03:28.734Z,45.70
2018-02-07T07:04:28.763Z,44.90
2018-02-07T07:05:28.708Z,42.80
2018-02-07T07:06:28.699Z,44.00
2018-02-07T07:07:28.682Z,41.00
2018-02-07T07:08:28.671Z,46.10
2018-02-07T07:09:28.653Z,46.60
2018-02-07T07:10:28.642Z,43.80
2018-02-07T07:11:28.633Z,44.30
2018-02-07T07:12:28.613Z,44.20
2018-02-07T07:13:28.618Z,45.90
2018-02-07T07:14:28.591Z,44.20
2018-02-07T07:15:28.577Z,43.20
2018-02-07T07:16:28.604Z,42.90
2018-02-07T07:17:28.553Z,42.70
2018-02-07T07:18:28.538Z,45.10
2018-02-07T07:19:28.544Z,48.20
2018-02-07T07:20:28.512Z,43.70
2018-02-07T07:21:28.500Z,40.60
2018-02-07T07:22:28.486Z,44.20
2018-02-07T07:23:28.473Z,44.20
2018-02-07T07:24:28.461Z,53.30
2018-02-07T07:25:28.455Z,48.90
2018-02-07T07:26:28.435Z,42.20
2018-02-07T07:27:28.425Z,42.90
2018-02-07T07:28:28.409Z,42.50
2018-02-07T07:29:28.393Z,41.00
2018-02-07T07:30:28.385Z,40.50
2018-02-07T07:31:28.373Z,42.30
2018-02-07T07:32:28.363Z,58.80
2018-02-07T07:33:28.342Z,50.50
2018-02-07T07:34:28.331Z,56.30
2018-02-07T07:35:28.347Z,47.90
2018-02-07T07:36:28.309Z,47.90
2018-02-07T07:37:28.296Z,78.80
2018-02-07T07:38:28.278Z,52.10
2018-02-07T07:39:28.267Z,54.80
2018-02-07T07:40:28.255Z,52.20
2018-02-07T07:41:28.240Z,56.80
2018-02-07T07:42:28.235Z,53.70
2018-02-07T07:43:28.210Z,44.20
2018-02-07T07:44:28.206Z,43.50
2018-02-07T07:45:28.192Z,42.50
2018-02-07T07:46:28.181Z,44.30
2018-02-07T07:47:28.168Z,42.30
2018-02-07T07:48:28.157Z,43.60
2018-02-07T07:49:28.141Z,43.20
2018-02-07T07:50:28.131Z,43.80
2018-02-07T07:51:28.115Z,42.00
2018-02-07T07:52:28.104Z,47.40
2018-02-07T07:53:28.094Z,41.00
2018-02-07T07:54:28.075Z,41.10
2018-02-07T07:55:28.067Z,42.00
2018-02-07T07:56:28.056Z,43.30
2018-02-07T07:57:28.043Z,42.30
2018-02-07T07:58:28.031Z,41.60
2018-02-07T07:59:28.032Z,46.90
2018-02-07T08:00:28.709Z,41.20
2018-02-07T08:01:28.010Z,41.30
2018-02-07T08:02:27.981Z,43.00
2018-02-07T08:03:27.968Z,41.80
2018-02-07T08:04:27.958Z,41.10
2018-02-07T08:05:27.941Z,41.30
2018-02-07T08:06:27.942Z,42.80
2018-02-07T08:07:27.915Z,43.30
2018-02-07T08:08:27.909Z,41.30
2018-02-07T08:09:27.907Z,43.80
2018-02-07T08:10:27.886Z,43.00
2018-02-07T08:11:27.871Z,46.30
2018-02-07T08:12:27.859Z,42.90
2018-02-07T08:13:27.887Z,42.90
2018-02-07T08:14:27.833Z,42.10
2018-02-07T08:15:27.825Z,42.70
2018-02-07T08:16:27.844Z,39.00
2018-02-07T08:17:27.812Z,42.80
2018-02-07T08:18:27.825Z,44.40
2018-02-07T08:19:27.825Z,43.30
2018-02-07T08:20:27.765Z,44.90
2018-02-07T08:21:27.753Z,46.30
2018-02-07T08:22:27.746Z,45.00
2018-02-07T08:23:27.730Z,44.70
2018-02-07T08:24:27.734Z,48.30
2018-02-07T08:25:27.708Z,43.80
2018-02-07T08:26:27.694Z,46.90
2018-02-07T08:27:27.678Z,43.70
2018-02-07T08:28:27.670Z,43.80
2018-02-07T08:29:27.655Z,44.10
2018-02-07T08:30:27.647Z,42.70
2018-02-07T08:31:27.631Z,41.70
2018-02-07T08:32:27.623Z,44.20
2018-02-07T08:33:27.611Z,42.20
2018-02-07T08:34:27.590Z,44.20
2018-02-07T08:35:27.609Z,43.60
2018-02-07T08:36:27.577Z,42.80
2018-02-07T08:37:27.552Z,42.80
2018-02-07T08:38:27.557Z,42.70
2018-02-07T08:39:27.541Z,40.40
2018-02-07T08:40:27.530Z,41.40
2018-02-07T08:41:27.516Z,42.10
2018-02-07T08:42:27.506Z,37.80
2018-02-07T08:43:27.495Z,43.00
2018-02-07T08:44:27.481Z,41.20
2018-02-07T08:45:27.470Z,42.30
2018-02-07T08:46:27.457Z,41.10
2018-02-07T08:47:27.447Z,41.90
2018-02-07T08:48:27.456Z,42.80
2018-02-07T08:49:27.438Z,39.30
2018-02-07T08:50:27.411Z,42.60
2018-02-07T08:51:27.403Z,43.30
2018-02-07T08:52:27.389Z,39.70
2018-02-07T08:53:27.379Z,41.10
2018-02-07T08:54:27.366Z,40.20
2018-02-07T08:55:27.405Z,42.50
2018-02-07T08:56:27.339Z,40.80
2018-02-07T08:57:27.330Z,41.40
2018-02-07T08:58:27.324Z,41.80
2018-02-07T08:59:27.311Z,42.30
2018-02-07T09:00:27.296Z,42.60
2018-02-07T09:01:27.322Z,42.10
2018-02-07T09:02:27.272Z,40.80
2018-02-07T09:03:27.268Z,41.20
2018-02-07T09:04:27.263Z,42.80
2018-02-07T09:05:27.241Z,40.20
2018-02-07T09:06:27.231Z,43.60
2018-02-07T09:07:27.219Z,40.30
2018-02-07T09:08:27.209Z,42.00
2018-02-07T09:09:27.196Z,40.00
2018-02-07T09:10:27.186Z,44.30
2018-02-07T09:11:27.176Z,41.80
2018-02-07T09:12:27.160Z,39.00
2018-02-07T09:13:27.160Z,39.50
2018-02-07T09:14:27.147Z,42.30
2018-02-07T09:15:27.137Z,42.80
2018-02-07T09:16:27.115Z,42.10
2018-02-07T09:17:27.106Z,43.30
2018-02-07T09:18:27.091Z,43.70
2018-02-07T09:19:27.081Z,41.70
2018-02-07T09:20:27.068Z,44.80
2018-02-07T09:21:27.093Z,41.00
2018-02-07T09:22:27.045Z,43.90
2018-02-07T09:23:27.061Z,46.70
2018-02-07T09:24:27.029Z,42.40
2018-02-07T09:25:27.017Z,39.30
2018-02-07T09:26:27.007Z,38.80
2018-02-07T09:27:26.992Z,45.70
2018-02-07T09:28:26.977Z,39.80
2018-02-07T09:29:26.964Z,42.60
2018-02-07T09:30:26.955Z,45.10
2018-02-07T09:31:26.946Z,42.90
2018-02-07T09:32:26.935Z,46.20
2018-02-07T09:33:26.921Z,46.60
2018-02-07T09:34:26.915Z,44.10
2018-02-07T09:35:26.905Z,42.80
2018-02-07T09:36:26.886Z,42.50
2018-02-07T09:37:26.879Z,42.80
2018-02-07T09:38:26.869Z,42.90
2018-02-07T09:39:26.890Z,44.30
2018-02-07T09:40:26.844Z,46.30
2018-02-07T09:41:26.828Z,43.10
2018-02-07T09:42:26.821Z,43.70
2018-02-07T09:43:26.814Z,43.50
2018-02-07T09:44:26.805Z,46.20
2018-02-07T09:45:26.791Z,47.00
2018-02-07T09:46:26.776Z,48.00
2018-02-07T09:47:26.767Z,43.80
2018-02-07T09:48:26.757Z,47.50
2018-02-07T09:49:26.745Z,48.20
2018-02-07T09:50:26.736Z,44.10
2018-02-07T09:51:26.715Z,51.60
2018-02-07T09:52:26.712Z,43.80
2018-02-07T09:53:26.717Z,44.70
2018-02-07T09:54:26.696Z,47.50
2018-02-07T09:55:26.678Z,46.30
2018-02-07T09:56:26.665Z,42.80
2018-02-07T09:57:26.659Z,43.70
2018-02-07T09:58:26.645Z,41.80
2018-02-07T09:59:26.642Z,43.70
2018-02-07T10:00:26.627Z,57.90
2018-02-07T10:01:26.613Z,43.70
2018-02-07T10:02:26.601Z,43.60
2018-02-07T10:03:26.589Z,46.10
2018-02-07T10:04:26.584Z,44.90
2018-02-07T10:05:26.584Z,42.40
2018-02-07T10:06:26.560Z,48.40
2018-02-07T10:07:26.565Z,57.00
2018-02-07T10:08:26.535Z,45.30
2018-02-07T10:09:26.526Z,40.70
2018-02-07T10:10:26.517Z,41.30
2018-02-07T10:11:26.509Z,38.50
2018-02-07T10:12:26.496Z,42.00
2018-02-07T10:13:26.480Z,43.80
2018-02-07T10:14:26.472Z,40.10
2018-02-07T10:15:27.731Z,49.00
2018-02-07T10:16:26.454Z,43.10
2018-02-07T10:17:26.439Z,44.10
2018-02-07T10:18:26.432Z,46.80
2018-02-07T10:19:26.457Z,44.10
2018-02-07T10:20:26.410Z,42.60
2018-02-07T10:21:26.397Z,42.00
2018-02-07T10:22:26.388Z,41.90
2018-02-07T10:23:26.391Z,42.50
2018-02-07T10:24:26.424Z,43.40
2018-02-07T10:25:26.365Z,41.00
2018-02-07T10:26:26.358Z,43.90
2018-02-07T10:27:26.331Z,41.00
2018-02-07T10:28:26.321Z,41.50
2018-02-07T10:29:26.310Z,43.60
2018-02-07T10:30:26.293Z,41.10
2018-02-07T10:31:26.345Z,44.60
2018-02-07T10:32:26.282Z,43.60
2018-02-07T10:33:26.268Z,42.00
2018-02-07T10:34:26.272Z,39.80
2018-02-07T10:35:26.247Z,44.70
2018-02-07T10:36:26.238Z,42.70
2018-02-07T10:37:26.217Z,42.70
2018-02-07T10:38:26.215Z,42.50
2018-02-07T10:39:26.221Z,44.00
2018-02-07T10:40:26.196Z,45.20
2018-02-07T10:41:26.202Z,44.10
2018-02-07T10:42:26.172Z,40.30
2018-02-07T10:43:26.163Z,42.40
2018-02-07T10:44:26.156Z,43.50
2018-02-07T10:45:26.150Z,43.70
2018-02-07T10:46:26.129Z,44.20
2018-02-07T10:47:26.169Z,46.60
2018-02-07T10:48:26.106Z,45.00
2018-02-07T10:49:26.100Z,41.20
2018-02-07T10:50:26.079Z,45.00
2018-02-07T10:51:26.079Z,42.60
2018-02-07T10:52:26.064Z,43.00
2018-02-07T10:53:26.056Z,46.90
2018-02-07T10:54:26.047Z,43.00
2018-02-07T10:55:26.033Z,44.10
2018-02-07T10:56:26.024Z,43.50
2018-02-07T10:57:26.014Z,44.90
2018-02-07T10:58:26.042Z,43.10
2018-02-07T10:59:25.986Z,41.30
2018-02-07T11:00:25.984Z,42.70
2018-02-07T11:01:25.963Z,42.50
2018-02-07T11:02:25.964Z,40.10
2018-02-07T11:03:25.951Z,41.50
2018-02-07T11:04:25.939Z,43.90
2018-02-07T11:05:25.928Z,42.60
2018-02-07T11:06:25.919Z,42.20
2018-02-07T11:07:25.908Z,45.10
2018-02-07T11:08:25.891Z,40.20
2018-02-07T11:09:25.892Z,42.30
2018-02-07T11:10:25.895Z,44.50
2018-02-07T11:11:25.870Z,44.90
2018-02-07T11:12:25.859Z,40.90
2018-02-07T11:13:25.846Z,41.40
2018-02-07T11:14:25.843Z,41.50
2018-02-07T11:15:25.824Z,41.20
2018-02-07T11:16:25.815Z,47.60
2018-02-07T11:17:25.807Z,47.40
2018-02-07T11:18:25.802Z,53.90
2018-02-07T11:19:25.790Z,48.40
2018-02-07T11:20:25.778Z,44.50
2018-02-07T11:21:25.765Z,40.40
2018-02-07T11:22:25.757Z,40.90
2018-02-07T11:23:25.770Z,36.90
2018-02-07T11:24:25.741Z,37.60
2018-02-07T11:25:25.729Z,41.00
2018-02-07T11:26:25.722Z,39.20
2018-02-07T11:27:25.712Z,41.20
2018-02-07T11:28:25.707Z,39.10
2018-02-07T11:29:25.711Z,39.60
2018-02-07T11:30:25.680Z,40.10
2018-02-07T11:31:25.674Z,37.80
2018-02-07T11:32:25.664Z,42.10
2018-02-07T11:33:25.655Z,38.50
2018-02-07T11:34:25.656Z,40.60
2018-02-07T11:35:25.636Z,41.30
2018-02-07T11:36:25.629Z,40.90
2018-02-07T11:37:25.634Z,39.90
2018-02-07T11:38:25.608Z,38.90
2018-02-07T11:39:25.605Z,41.30
2018-02-07T11:40:25.595Z,40.00
2018-02-07T11:41:25.593Z,39.60
2018-02-07T11:42:25.575Z,40.40
2018-02-07T11:43:25.563Z,38.00
2018-02-07T11:44:25.563Z,39.50
2018-02-07T11:45:25.543Z,39.60
2018-02-07T11:46:25.532Z,39.80
2018-02-07T11:47:25.528Z,40.30
2018-02-07T11:48:25.523Z,38.80
2018-02-07T11:49:25.510Z,41.00
2018-02-07T11:50:25.501Z,42.00
2018-02-07T11:51:25.501Z,42.30
2018-02-07T11:52:25.487Z,40.80
2018-02-07T11:53:25.530Z,38.80
2018-02-07T11:54:25.465Z,41.70
2018-02-07T11:55:25.463Z,40.40
2018-02-07T11:56:25.448Z,42.60
2018-02-07T11:57:25.440Z,40.00
2018-02-07T11:58:25.433Z,40.70
2018-02-07T11:59:25.430Z,44.80
2018-02-07T12:00:25.416Z,37.70
2018-02-07T12:01:25.414Z,41.70
2018-02-07T12:02:25.397Z,40.90
2018-02-07T12:03:25.387Z,40.40
2018-02-07T12:04:25.377Z,39.90
2018-02-07T12:05:25.367Z,41.50
2018-02-07T12:06:25.360Z,40.20
2018-02-07T12:07:25.351Z,38.80
2018-02-07T12:08:25.336Z,40.30
2018-02-07T12:09:25.340Z,39.00
2018-02-07T12:10:25.327Z,39.30
2018-02-07T12:11:25.311Z,38.30
2018-02-07T12:12:25.307Z,39.20
2018-02-07T12:13:25.295Z,40.90
2018-02-07T12:14:25.289Z,43.40
2018-02-07T12:15:25.282Z,41.90
2018-02-07T12:16:25.267Z,39.10
2018-02-07T12:17:25.262Z,39.20
2018-02-07T12:18:25.258Z,40.80
2018-02-07T12:19:25.250Z,41.60
2018-02-07T12:20:25.232Z,42.20
2018-02-07T12:21:25.227Z,40.20
2018-02-07T12:22:25.215Z,37.60
2018-02-07T12:23:25.212Z,40.40
2018-02-07T12:24:25.203Z,40.00
2018-02-07T12:25:25.191Z,40.00
2018-02-07T12:26:25.181Z,40.40
2018-02-07T12:27:25.180Z,42.40
2018-02-07T12:28:25.181Z,40.80
2018-02-07T12:29:25.187Z,41.40
2018-02-07T12:30:25.145Z,40.80
2018-02-07T12:31:25.174Z,42.40
2018-02-07T12:32:25.135Z,43.70
2018-02-07T12:33:25.118Z,41.40
2018-02-07T12:34:25.114Z,42.50
2018-02-07T12:35:25.113Z,40.90
2018-02-07T12:36:25.108Z,39.60
2018-02-07T12:37:25.829Z,44.40
2018-02-07T12:38:25.085Z,40.30
2018-02-07T12:39:25.086Z,42.30
2018-02-07T12:40:25.070Z,43.60
2018-02-07T12:41:25.066Z,41.20
2018-02-07T12:42:25.054Z,37.90
2018-02-07T12:43:25.115Z,40.70
2018-02-07T12:44:25.027Z,43.20
2018-02-07T12:45:25.029Z,44.40
2018-02-07T12:46:25.008Z,44.00
2018-02-07T12:47:25.009Z,41.20
2018-02-07T12:48:25.001Z,42.00
2018-02-07T12:49:25.009Z,43.20
2018-02-07T12:50:24.982Z,43.80
2018-02-07T12:51:24.974Z,43.60
2018-02-07T12:52:24.966Z,40.00